createdAt,value
2018-12-27T00:00:38.092Z,51.67
2018-12-27T00:03:05.529Z,44.33
2018-12-27T00:05:33.000Z,53.27
2018-12-27T00:08:00.424Z,47.90
2018-12-27T00:10:27.872Z,50.90
2018-12-27T00:12:55.328Z,46.13
2018-12-27T00:15:22.780Z,44.20
2018-12-27T00:17:50.188Z,44.07
2018-12-27T00:20:17.607Z,46.30
2018-12-27T00:22:45.034Z,45.10
2018-12-27T00:25:12.444Z,41.20
2018-12-27T00:27:39.909Z,43.63
2018-12-27T00:30:07.381Z,47.83
2018-12-27T00:32:34.819Z,46.20
2018-12-27T00:35:02.247Z,47.83
2018-12-27T00:37:29.745Z,47.17
2018-12-27T00:39:57.153Z,40.40
2018-12-27T00:42:24.567Z,35.27
2018-12-27T00:44:52.016Z,40.37
2018-12-27T00:47:19.430Z,37.67
2018-12-27T00:49:46.884Z,36.73
2018-12-27T00:52:14.295Z,37.63
2018-12-27T00:54:41.750Z,45.57
2018-12-27T00:57:09.174Z,43.60
2018-12-27T00:59:36.625Z,41.70
2018-12-27T01:02:04.063Z,41.30
2018-12-27T01:04:31.464Z,41.77
2018-12-27T01:06:58.911Z,33.90
2018-12-27T01:09:26.333Z,37.37
2018-12-27T01:11:53.801Z,33.17
2018-12-27T01:14:21.185Z,33.83
2018-12-27T01:16:48.666Z,34.20
2018-12-27T01:19:16.078Z,39.23
2018-12-27T01:21:43.513Z,35.33
2018-12-27T01:24:10.961Z,34.70
2018-12-27T01:26:38.404Z,34.87
2018-12-27T01:29:05.831Z,34.43
2018-12-27T01:31:33.283Z,36.13
2018-12-27T01:34:00.713Z,32.80
2018-12-27T01:36:28.124Z,31.17
2018-12-27T01:38:55.618Z,34.83
2018-12-27T01:41:23.027Z,35.93
2018-12-27T01:43:50.463Z,31.87
2018-12-27T01:46:17.869Z,33.40
2018-12-27T01:48:45.500Z,36.63
2018-12-27T01:51:12.917Z,37.47
2018-12-27T01:53:40.345Z,36.40
2018-12-27T01:56:07.807Z,31.97
2018-12-27T01:58:35.254Z,39.80
2018-12-27T02:01:02.663Z,31.27
2018-12-27T02:03:30.155Z,32.97
2018-12-27T02:05:57.510Z,37.33
2018-12-27T02:08:24.917Z,35.13
2018-12-27T02:10:52.344Z,35.63
2018-12-27T02:13:19.802Z,36.67
2018-12-27T02:15:47.243Z,32.50
2018-12-27T02:18:14.680Z,34.23
2018-12-27T02:20:42.123Z,31.40
2018-12-27T02:23:09.533Z,31.60
2018-12-27T02:25:36.978Z,35.73
2018-12-27T02:28:04.400Z,30.60
2018-12-27T02:30:31.839Z,30.13
2018-12-27T02:32:59.247Z,32.23
2018-12-27T02:35:26.671Z,28.83
2018-12-27T02:37:54.098Z,29.27
2018-12-27T02:40:21.521Z,30.23
2018-12-27T02:42:48.955Z,30.33
2018-12-27T02:45:16.373Z,31.77
2018-12-27T02:47:43.804Z,31.73
2018-12-27T02:50:11.206Z,30.63
2018-12-27T02:52:38.651Z,29.90
2018-12-27T02:55:06.053Z,31.77
2018-12-27T02:57:33.497Z,28.77
2018-12-27T03:00:00.942Z,30.63
2018-12-27T03:02:28.367Z,29.60
2018-12-27T03:04:55.832Z,31.23
2018-12-27T03:07:23.184Z,32.23
2018-12-27T03:09:50.617Z,34.20
2018-12-27T03:12:18.039Z,34.73
2018-12-27T03:14:45.474Z,34.77
2018-12-27T03:17:12.889Z,31.87
2018-12-27T03:19:40.334Z,32.23
2018-12-27T03:22:07.733Z,34.27
2018-12-27T03:24:35.171Z,34.00
2018-12-27T03:27:02.622Z,29.20
2018-12-27T03:29:30.012Z,31.10
2018-12-27T03:31:57.423Z,31.93
2018-12-27T03:34:24.848Z,32.43
2018-12-27T03:36:52.286Z,33.60
2018-12-27T03:39:19.703Z,31.10
2018-12-27T03:41:47.126Z,32.20
2018-12-27T03:44:14.532Z,30.10
2018-12-27T03:46:41.952Z,35.60
2018-12-27T03:49:09.378Z,33.70
2018-12-27T03:51:37.866Z,31.87
2018-12-27T03:54:05.294Z,34.10
2018-12-27T03:56:32.690Z,33.10
2018-12-27T03:59:00.119Z,32.13
2018-12-27T04:01:27.535Z,32.00
2018-12-27T04:04:01.337Z,31.50
2018-12-27T04:06:22.383Z,28.50
2018-12-27T04:08:49.846Z,35.40
2018-12-27T04:11:17.224Z,30.43
2018-12-27T04:13:44.657Z,32.77
2018-12-27T04:16:12.060Z,30.80
2018-12-27T04:18:39.493Z,31.57
2018-12-27T04:21:06.916Z,31.60
2018-12-27T04:23:34.342Z,32.47
2018-12-27T04:26:01.856Z,30.70
2018-12-27T04:28:29.289Z,32.87
2018-12-27T04:30:56.704Z,33.57
2018-12-27T04:33:24.115Z,33.33
2018-12-27T04:35:51.545Z,31.13
2018-12-27T04:38:18.957Z,33.67
2018-12-27T04:40:46.394Z,34.20
2018-12-27T04:43:13.795Z,28.80
2018-12-27T04:45:41.237Z,32.30
2018-12-27T04:48:08.666Z,33.27
2018-12-27T04:50:36.091Z,26.93
2018-12-27T04:53:03.508Z,32.83
2018-12-27T04:55:30.943Z,36.70
2018-12-27T04:57:58.364Z,36.90
2018-12-27T05:00:25.816Z,37.83
2018-12-27T05:02:53.251Z,30.70
2018-12-27T05:05:20.685Z,30.93
2018-12-27T05:07:48.101Z,31.00
2018-12-27T05:10:15.501Z,29.63
2018-12-27T05:12:42.922Z,29.40
2018-12-27T05:15:10.338Z,31.87
2018-12-27T05:17:37.771Z,27.93
2018-12-27T05:20:05.167Z,30.93
2018-12-27T05:22:32.618Z,33.10
2018-12-27T05:25:00.028Z,30.20
2018-12-27T05:27:27.464Z,30.20
2018-12-27T05:29:54.876Z,31.33
2018-12-27T05:32:22.328Z,33.27
2018-12-27T05:34:49.716Z,30.07
2018-12-27T05:37:18.406Z,30.53
2018-12-27T05:39:44.579Z,30.47
2018-12-27T05:42:11.985Z,30.53
2018-12-27T05:44:39.418Z,28.73
2018-12-27T05:47:06.825Z,31.07
2018-12-27T05:49:34.253Z,29.60
2018-12-27T05:52:01.653Z,35.87
2018-12-27T05:54:29.079Z,37.07
2018-12-27T05:56:56.484Z,34.60
2018-12-27T05:59:23.924Z,35.60
2018-12-27T06:01:51.336Z,32.93
2018-12-27T06:04:18.756Z,36.80
2018-12-27T06:06:46.178Z,32.53
2018-12-27T06:09:13.617Z,30.73
2018-12-27T06:11:41.070Z,31.40
2018-12-27T06:14:08.488Z,28.37
2018-12-27T06:16:35.943Z,31.07
2018-12-27T06:19:03.379Z,28.30
2018-12-27T06:21:30.790Z,30.93
2018-12-27T06:23:58.226Z,29.60
2018-12-27T06:26:25.639Z,28.90
2018-12-27T06:28:53.062Z,28.80
2018-12-27T06:31:20.474Z,32.13
2018-12-27T06:33:47.917Z,29.20
2018-12-27T06:36:15.324Z,29.20
2018-12-27T06:38:42.769Z,36.13
2018-12-27T06:41:10.209Z,31.30
2018-12-27T06:43:37.657Z,29.53
2018-12-27T06:46:05.084Z,29.00
2018-12-27T06:48:32.501Z,34.80
2018-12-27T06:50:59.907Z,33.47
2018-12-27T06:53:27.339Z,37.17
2018-12-27T06:55:54.777Z,35.10
2018-12-27T06:58:22.221Z,32.23
2018-12-27T07:00:49.633Z,35.00
2018-12-27T07:03:17.074Z,34.23
2018-12-27T07:05:44.475Z,33.90
2018-12-27T07:08:11.897Z,32.80
2018-12-27T07:10:39.339Z,40.27
2018-12-27T07:13:06.737Z,46.97
2018-12-27T07:15:34.177Z,39.43
2018-12-27T07:18:01.601Z,42.07
2018-12-27T07:20:29.023Z,36.43
2018-12-27T07:22:56.432Z,42.60
2018-12-27T07:25:23.866Z,42.17
2018-12-27T07:27:51.282Z,46.03
2018-12-27T07:30:18.743Z,41.47
2018-12-27T07:32:46.177Z,36.60
2018-12-27T07:35:13.588Z,33.17
2018-12-27T07:37:41.024Z,37.07
2018-12-27T07:40:08.439Z,38.67
2018-12-27T07:42:35.876Z,39.40
2018-12-27T07:45:03.296Z,41.47
2018-12-27T07:47:30.740Z,40.13
2018-12-27T07:49:58.135Z,36.87
2018-12-27T07:52:25.660Z,32.10
2018-12-27T07:54:53.059Z,37.37
2018-12-27T07:57:20.472Z,36.60
2018-12-27T07:59:47.916Z,33.03
2018-12-27T08:02:15.528Z,40.97
2018-12-27T08:04:42.969Z,38.80
2018-12-27T08:07:10.408Z,35.97
2018-12-27T08:09:37.841Z,42.47
2018-12-27T08:12:05.255Z,44.77
2018-12-27T08:14:32.703Z,35.53
2018-12-27T08:17:00.120Z,36.50
2018-12-27T08:19:27.592Z,40.83
2018-12-27T08:21:55.311Z,42.13
2018-12-27T08:24:22.579Z,48.47
2018-12-27T08:26:49.992Z,52.63
2018-12-27T08:29:17.433Z,46.40
2018-12-27T08:31:44.859Z,45.33
2018-12-27T08:34:12.307Z,77.40
2018-12-27T08:36:40.864Z,57.53
2018-12-27T08:39:08.270Z,46.97
2018-12-27T08:41:35.697Z,44.33
2018-12-27T08:44:04.743Z,42.13
2018-12-27T08:46:32.184Z,39.23
2018-12-27T08:48:59.586Z,44.03
2018-12-27T08:51:27.015Z,40.43
2018-12-27T08:53:54.448Z,38.03
2018-12-27T08:56:21.849Z,39.53
2018-12-27T08:58:49.307Z,42.93
2018-12-27T09:01:16.712Z,42.57
2018-12-27T09:03:44.161Z,42.30
2018-12-27T09:06:11.577Z,50.20
2018-12-27T09:08:39.007Z,44.87
2018-12-27T09:11:06.409Z,43.83
2018-12-27T09:13:33.845Z,41.33
2018-12-27T09:16:01.267Z,47.23
2018-12-27T09:18:29.493Z,47.83
2018-12-27T09:20:56.902Z,47.03
2018-12-27T09:23:24.343Z,35.53
2018-12-27T09:25:51.788Z,39.40
2018-12-27T09:28:19.255Z,35.97
2018-12-27T09:30:46.626Z,38.93
2018-12-27T09:33:14.082Z,37.37
2018-12-27T09:35:41.494Z,39.87
2018-12-27T09:38:08.913Z,37.07
2018-12-27T09:40:36.357Z,39.33
2018-12-27T09:43:03.759Z,37.47
2018-12-27T09:45:31.203Z,41.73
2018-12-27T09:47:58.599Z,38.37
2018-12-27T09:50:26.031Z,41.20
2018-12-27T09:52:53.507Z,38.97
2018-12-27T09:55:21.036Z,34.27
2018-12-27T09:57:48.522Z,32.37
2018-12-27T10:00:15.977Z,36.67
2018-12-27T10:02:43.562Z,35.17
2018-12-27T10:05:10.989Z,32.90
2018-12-27T10:07:38.452Z,33.27
2018-12-27T10:10:05.864Z,28.60
2018-12-27T10:12:33.316Z,37.77
2018-12-27T10:15:00.804Z,39.10
2018-12-27T10:17:28.226Z,32.97
2018-12-27T10:19:55.652Z,33.33
2018-12-27T10:22:23.093Z,32.50
2018-12-27T10:24:50.536Z,26.47
2018-12-27T10:27:17.954Z,27.27
2018-12-27T10:29:45.393Z,23.90
2018-12-27T10:32:12.818Z,18.30
2018-12-27T10:34:40.260Z,17.27
2018-12-27T10:37:07.682Z,18.23
2018-12-27T10:39:35.103Z,18.13
2018-12-27T10:42:02.552Z,16.80
2018-12-27T10:44:30.008Z,18.07
2018-12-27T10:46:57.436Z,18.23
2018-12-27T10:49:24.874Z,18.40
2018-12-27T10:51:52.357Z,16.53
2018-12-27T10:54:19.717Z,20.63
2018-12-27T10:56:47.171Z,16.10
2018-12-27T10:59:14.613Z,20.83
2018-12-27T11:01:42.141Z,21.73
2018-12-27T11:04:09.539Z,18.37
2018-12-27T11:06:36.986Z,21.43
2018-12-27T11:09:04.455Z,23.53
2018-12-27T11:11:32.159Z,21.30
2018-12-27T11:13:59.587Z,23.23
2018-12-27T11:16:27.067Z,21.73
2018-12-27T11:18:54.500Z,20.37
2018-12-27T11:21:21.909Z,18.23
2018-12-27T11:23:49.351Z,21.70
2018-12-27T11:26:16.833Z,18.80
2018-12-27T11:28:44.278Z,21.47
2018-12-27T11:31:11.715Z,18.07
2018-12-27T11:33:39.146Z,18.00
2018-12-27T11:36:06.563Z,35.70
2018-12-27T11:38:33.980Z,25.73
2018-12-27T11:41:01.397Z,26.53
2018-12-27T11:43:28.824Z,18.80
2018-12-27T11:45:56.249Z,17.30
2018-12-27T11:48:23.682Z,19.47
2018-12-27T11:50:51.152Z,20.80
2018-12-27T11:53:18.554Z,19.73
2018-12-27T11:55:46.022Z,21.30
2018-12-27T11:58:13.416Z,17.40
2018-12-27T12:00:40.865Z,21.83
2018-12-27T12:03:08.312Z,20.00
2018-12-27T12:05:35.753Z,21.43
2018-12-27T12:08:03.179Z,18.33
2018-12-27T12:10:30.611Z,19.67
2018-12-27T12:12:58.040Z,32.83
2018-12-27T12:15:25.486Z,24.67
2018-12-27T12:17:52.890Z,25.03
2018-12-27T12:20:20.348Z,26.60
2018-12-27T12:22:47.751Z,19.50
2018-12-27T12:25:15.164Z,23.67
2018-12-27T12:27:42.634Z,24.03
2018-12-27T12:30:10.066Z,27.47
2018-12-27T12:32:37.469Z,26.80
2018-12-27T12:35:04.902Z,22.57
2018-12-27T12:37:32.300Z,27.73
2018-12-27T12:39:59.767Z,23.67
2018-12-27T12:42:32.956Z,27.63
2018-12-27T12:44:54.687Z,25.57
2018-12-27T12:47:22.169Z,22.73
2018-12-27T12:49:49.643Z,25.17
2018-12-27T12:52:17.057Z,25.67
2018-12-27T12:54:44.515Z,23.83
2018-12-27T12:57:11.938Z,23.63
2018-12-27T12:59:39.370Z,23.27
2018-12-27T13:02:06.778Z,23.07
2018-12-27T13:04:34.218Z,20.93
2018-12-27T13:07:01.726Z,18.50
2018-12-27T13:09:29.084Z,18.07
2018-12-27T13:11:57.776Z,19.10
2018-12-27T13:14:25.189Z,19.90
2018-12-27T13:16:52.628Z,16.83
2018-12-27T13:19:20.116Z,19.60
2018-12-27T13:21:47.475Z,16.83
2018-12-27T13:24:14.884Z,20.47
2018-12-27T13:26:42.326Z,18.93
2018-12-27T13:29:09.760Z,22.30
2018-12-27T13:31:37.161Z,16.13
2018-12-27T13:34:04.587Z,20.27
2018-12-27T13:36:31.985Z,20.33
2018-12-27T13:38:59.487Z,20.17
2018-12-27T13:41:26.982Z,22.13
2018-12-27T13:43:54.453Z,24.23
2018-12-27T13:46:21.880Z,27.53
2018-12-27T13:48:49.319Z,23.73
2018-12-27T13:51:16.737Z,25.17
2018-12-27T13:53:44.197Z,22.60
2018-12-27T13:56:11.610Z,24.80
2018-12-27T13:58:39.088Z,24.50
2018-12-27T14:01:06.482Z,21.90
2018-12-27T14:03:33.889Z,23.33
2018-12-27T14:06:01.348Z,29.30
2018-12-27T14:08:28.765Z,28.87
2018-12-27T14:10:56.204Z,25.03
2018-12-27T14:13:23.663Z,22.43
2018-12-27T14:15:51.102Z,20.83
2018-12-27T14:18:18.527Z,22.43
2018-12-27T14:20:45.993Z,20.73
2018-12-27T14:23:13.427Z,24.23
2018-12-27T14:25:40.823Z,27.13
2018-12-27T14:28:08.285Z,32.47
2018-12-27T14:30:35.705Z,25.23
2018-12-27T14:33:03.247Z,30.47
2018-12-27T14:35:30.673Z,25.43
2018-12-27T14:37:58.069Z,25.47
2018-12-27T14:40:25.520Z,26.03
2018-12-27T14:42:52.960Z,27.77
2018-12-27T14:45:20.399Z,26.93
2018-12-27T14:47:47.790Z,24.83
2018-12-27T14:50:15.216Z,23.90
2018-12-27T14:52:42.653Z,21.87
2018-12-27T14:55:10.072Z,24.00
2018-12-27T14:57:37.506Z,24.37
2018-12-27T15:00:04.938Z,21.00
2018-12-27T15:02:32.381Z,22.30
2018-12-27T15:04:59.833Z,23.60
2018-12-27T15:07:27.250Z,25.30
2018-12-27T15:09:54.662Z,26.73
2018-12-27T15:12:22.118Z,27.07
2018-12-27T15:14:49.606Z,23.80
2018-12-27T15:17:17.033Z,24.30
2018-12-27T15:19:44.426Z,28.03
2018-12-27T15:22:11.890Z,25.07
2018-12-27T15:24:39.312Z,27.80
2018-12-27T15:27:06.769Z,23.43
2018-12-27T15:29:34.173Z,25.37
2018-12-27T15:32:01.613Z,30.13
2018-12-27T15:34:29.024Z,32.20
2018-12-27T15:36:56.461Z,34.70
2018-12-27T15:39:23.917Z,28.73
2018-12-27T15:41:51.362Z,23.27
2018-12-27T15:44:18.802Z,26.03
2018-12-27T15:46:46.212Z,27.87
2018-12-27T15:49:13.651Z,25.33
2018-12-27T15:51:41.093Z,26.47
2018-12-27T15:54:08.497Z,25.90
2018-12-27T15:56:35.928Z,27.20
2018-12-27T15:59:03.351Z,31.17
2018-12-27T16:01:30.824Z,25.23
2018-12-27T16:03:58.225Z,27.30
2018-12-27T16:06:25.655Z,25.97
2018-12-27T16:08:53.124Z,25.53
2018-12-27T16:11:20.546Z,21.97
2018-12-27T16:13:47.950Z,24.63
2018-12-27T16:16:15.495Z,28.57
2018-12-27T16:18:42.927Z,25.80
2018-12-27T16:21:10.396Z,26.30
2018-12-27T16:23:37.828Z,30.50
2018-12-27T16:26:05.309Z,25.83
2018-12-27T16:28:32.736Z,25.77
2018-12-27T16:31:00.169Z,27.13
2018-12-27T16:33:27.586Z,32.47
2018-12-27T16:35:55.042Z,30.43
2018-12-27T16:38:22.482Z,30.83
2018-12-27T16:40:49.981Z,29.90
2018-12-27T16:43:17.411Z,31.53
2018-12-27T16:45:44.822Z,28.93
2018-12-27T16:48:12.272Z,31.43
2018-12-27T16:50:39.678Z,28.83
2018-12-27T16:53:07.065Z,27.60
2018-12-27T16:55:34.519Z,27.30
2018-12-27T16:58:03.047Z,30.07
2018-12-27T17:00:30.493Z,32.33
2018-12-27T17:02:57.947Z,26.80
2018-12-27T17:05:25.370Z,25.70
2018-12-27T17:07:52.907Z,26.17
2018-12-27T17:10:20.376Z,28.20
2018-12-27T17:12:47.807Z,26.17
2018-12-27T17:15:17.292Z,31.27
2018-12-27T17:17:44.754Z,32.67
2018-12-27T17:20:12.166Z,25.47
2018-12-27T17:22:39.594Z,25.17
2018-12-27T17:25:07.046Z,28.17
2018-12-27T17:27:34.453Z,49.27
2018-12-27T17:30:01.884Z,44.20
2018-12-27T17:32:29.324Z,44.57
2018-12-27T17:34:56.799Z,55.47
2018-12-27T17:37:24.215Z,47.07
2018-12-27T17:39:51.636Z,64.30
2018-12-27T17:42:19.080Z,73.73
2018-12-27T17:44:46.502Z,48.03
2018-12-27T17:47:13.940Z,59.90
2018-12-27T17:49:41.355Z,39.13
2018-12-27T17:52:08.796Z,34.37
2018-12-27T17:54:36.210Z,34.07
2018-12-27T17:57:03.659Z,29.67
2018-12-27T17:59:31.092Z,33.00
2018-12-27T18:01:58.521Z,45.27
2018-12-27T18:04:26.004Z,35.27
2018-12-27T18:06:53.473Z,30.57
2018-12-27T18:09:20.899Z,32.70
2018-12-27T18:11:48.313Z,30.50
2018-12-27T18:14:15.751Z,29.53
2018-12-27T18:16:43.217Z,31.47
2018-12-27T18:19:10.617Z,29.50
2018-12-27T18:21:38.071Z,32.40
2018-12-27T18:24:05.512Z,36.30
2018-12-27T18:26:32.933Z,35.03
2018-12-27T18:29:00.401Z,35.87
2018-12-27T18:31:27.860Z,34.40
2018-12-27T18:33:55.326Z,34.57
2018-12-27T18:36:22.804Z,40.87
2018-12-27T18:38:52.043Z,34.03
2018-12-27T18:41:17.759Z,35.83
2018-12-27T18:43:45.233Z,40.63
2018-12-27T18:46:12.683Z,40.67
2018-12-27T18:48:40.171Z,46.73
2018-12-27T18:51:07.633Z,47.37
2018-12-27T18:53:35.148Z,42.63
2018-12-27T18:56:02.645Z,41.50
2018-12-27T18:58:30.099Z,40.17
2018-12-27T19:00:57.514Z,34.03
2018-12-27T19:03:24.988Z,34.03
2018-12-27T19:05:52.419Z,32.53
2018-12-27T19:08:19.879Z,30.10
2018-12-27T19:10:51.580Z,29.83
2018-12-27T19:13:14.771Z,30.60
2018-12-27T19:15:42.258Z,28.70
2018-12-27T19:18:12.489Z,28.27
2018-12-27T19:20:39.937Z,29.33
2018-12-27T19:23:07.385Z,28.87
2018-12-27T19:25:34.865Z,37.60
2018-12-27T19:28:02.315Z,38.53
2018-12-27T19:30:29.741Z,31.37
2018-12-27T19:32:57.188Z,32.97
2018-12-27T19:35:24.607Z,40.33
2018-12-27T19:37:52.446Z,32.60
2018-12-27T19:40:19.495Z,31.93
2018-12-27T19:42:46.944Z,28.87
2018-12-27T19:45:14.428Z,30.77
2018-12-27T19:47:41.867Z,31.47
2018-12-27T19:50:09.315Z,26.80
2018-12-27T19:52:36.776Z,30.70
2018-12-27T19:55:04.235Z,29.73
2018-12-27T19:57:31.721Z,29.47
2018-12-27T19:59:59.177Z,32.87
2018-12-27T20:02:26.625Z,37.00
2018-12-27T20:04:54.065Z,44.73
2018-12-27T20:07:21.484Z,34.73
2018-12-27T20:09:48.934Z,41.17
2018-12-27T20:12:16.348Z,33.30
2018-12-27T20:14:43.787Z,38.70
2018-12-27T20:17:11.211Z,33.00
2018-12-27T20:19:38.710Z,36.20
2018-12-27T20:22:06.159Z,40.20
2018-12-27T20:24:33.567Z,34.17
2018-12-27T20:27:00.996Z,36.40
2018-12-27T20:29:28.433Z,37.20
2018-12-27T20:31:55.913Z,40.03
2018-12-27T20:34:23.327Z,42.53
2018-12-27T20:36:50.772Z,36.03
2018-12-27T20:39:18.196Z,36.87
2018-12-27T20:41:45.660Z,35.67
2018-12-27T20:44:13.084Z,44.50
2018-12-27T20:46:40.500Z,42.40
2018-12-27T20:49:07.956Z,38.57
2018-12-27T20:51:35.385Z,41.83
2018-12-27T20:54:02.832Z,41.27
2018-12-27T20:56:30.294Z,38.40
2018-12-27T20:58:57.718Z,36.83
2018-12-27T21:01:25.177Z,39.47
2018-12-27T21:03:52.633Z,39.30
2018-12-27T21:06:20.047Z,36.53
2018-12-27T21:08:47.462Z,38.83
2018-12-27T21:11:14.912Z,36.03
2018-12-27T21:13:42.340Z,46.03
2018-12-27T21:16:09.783Z,48.10
2018-12-27T21:18:37.191Z,44.53
2018-12-27T21:21:04.685Z,38.00
2018-12-27T21:23:32.117Z,40.43
2018-12-27T21:25:59.549Z,38.30
2018-12-27T21:28:26.994Z,41.47
2018-12-27T21:30:54.414Z,43.03
2018-12-27T21:33:21.863Z,45.37
2018-12-27T21:35:49.273Z,40.50
2018-12-27T21:38:21.372Z,43.83
2018-12-27T21:40:44.147Z,37.53
2018-12-27T21:43:11.622Z,45.60
2018-12-27T21:45:39.001Z,42.97
2018-12-27T21:48:06.427Z,42.80
2018-12-27T21:50:33.894Z,41.63
2018-12-27T21:53:01.364Z,44.07
2018-12-27T21:55:28.810Z,38.47
2018-12-27T21:57:56.226Z,38.67
2018-12-27T22:00:23.656Z,37.70
2018-12-27T22:02:51.070Z,35.07
2018-12-27T22:05:18.507Z,37.57
2018-12-27T22:07:45.941Z,35.27
2018-12-27T22:10:13.385Z,37.73
2018-12-27T22:12:40.806Z,35.80
2018-12-27T22:15:08.260Z,36.40
2018-12-27T22:17:35.708Z,35.50
2018-12-27T22:20:03.139Z,34.97
2018-12-27T22:22:30.570Z,34.33
2018-12-27T22:24:58.006Z,35.80
2018-12-27T22:27:25.445Z,32.70
2018-12-27T22:29:52.890Z,34.10
2018-12-27T22:32:20.301Z,34.80
2018-12-27T22:34:47.747Z,37.07
2018-12-27T22:37:15.184Z,34.43
2018-12-27T22:39:42.620Z,36.20
2018-12-27T22:42:10.018Z,41.03
2018-12-27T22:44:37.458Z,45.17
2018-12-27T22:47:04.877Z,37.87
2018-12-27T22:49:32.289Z,40.87
2018-12-27T22:51:59.734Z,38.43
2018-12-27T22:54:27.150Z,39.50
2018-12-27T22:56:54.595Z,37.23
2018-12-27T22:59:22.020Z,45.03
2018-12-27T23:01:49.451Z,41.10
2018-12-27T23:04:16.974Z,42.60
2018-12-27T23:06:44.408Z,44.63
2018-12-27T23:09:11.840Z,45.70
2018-12-27T23:11:39.286Z,47.30
2018-12-27T23:14:06.700Z,44.13
2018-12-27T23:16:34.180Z,44.93
2018-12-27T23:19:01.586Z,42.13
2018-12-27T23:21:29.029Z,46.60
2018-12-27T23:23:56.436Z,46.73
2018-12-27T23:26:23.894Z,40.13
2018-12-27T23:28:51.335Z,44.90
2018-12-27T23:31:18.779Z,43.60
2018-12-27T23:33:46.188Z,43.57
2018-12-27T23:36:13.657Z,43.73
2018-12-27T23:38:41.141Z,42.47
2018-12-27T23:41:08.575Z,45.00
2018-12-27T23:43:36.014Z,46.37
2018-12-27T23:46:03.474Z,43.53
2018-12-27T23:48:30.924Z,42.37
2018-12-27T23:50:58.349Z,45.03
2018-12-27T23:53:25.778Z,45.77
2018-12-27T23:55:53.181Z,39.53
2018-12-27T23:58:20.613Z,42.13
